createdAt,value
2023-01-25T10:17:25.842Z,45.20
2023-01-25T10:17:35.568Z,45.29
2023-01-25T10:17:45.573Z,45.20
2023-01-25T10:17:55.601Z,45.29
2023-01-25T10:18:05.595Z,45.39
2023-01-25T10:18:17.023Z,45.62
2023-01-25T10:18:25.589Z,45.62
2023-01-25T10:18:35.581Z,45.42
2023-01-25T10:18:45.579Z,45.01
2023-01-25T10:18:55.581Z,45.12
2023-01-25T10:19:05.622Z,45.51
2023-01-25T10:19:17.030Z,45.72
2023-01-25T10:19:25.580Z,46.01
2023-01-25T10:19:35.588Z,46.12
2023-01-25T10:19:45.576Z,46.12
2023-01-25T10:19:55.558Z,46.22
2023-01-25T10:20:05.546Z,46.31
2023-01-25T10:20:15.556Z,46.31
2023-01-25T10:20:25.541Z,46.42
2023-01-25T10:20:35.584Z,46.12
2023-01-25T10:20:46.494Z,46.01
2023-01-25T10:20:55.562Z,45.81
2023-01-25T10:21:05.531Z,46.12
2023-01-25T10:21:15.555Z,46.31
2023-01-25T10:21:25.543Z,46.42
2023-01-25T10:21:35.527Z,46.72
2023-01-25T10:21:45.526Z,46.81
2023-01-25T10:21:55.559Z,46.92
2023-01-25T10:22:05.536Z,46.92
2023-01-25T10:22:15.505Z,46.92
2023-01-25T10:22:25.522Z,46.92
2023-01-25T10:22:35.512Z,47.11
2023-01-25T10:22:46.497Z,47.11
2023-01-25T10:22:55.514Z,54.86
2023-01-25T10:23:05.503Z,49.97
2023-01-25T10:23:17.171Z,47.65
2023-01-25T10:23:25.501Z,46.85
2023-01-25T10:23:35.462Z,46.45
2023-01-25T10:23:45.492Z,46.35
2023-01-25T10:23:55.564Z,46.25
2023-01-25T10:24:05.505Z,46.23
2023-01-25T10:24:15.484Z,46.23
2023-01-25T10:24:25.465Z,46.13
2023-01-25T10:24:35.478Z,45.93
2023-01-25T10:24:45.442Z,45.81
2023-01-25T10:24:55.437Z,45.90
2023-01-25T10:25:05.440Z,46.11
2023-01-25T10:25:15.424Z,46.01
2023-01-25T10:25:25.433Z,45.90
2023-01-25T10:25:35.416Z,45.81
2023-01-25T10:25:45.404Z,45.90
2023-01-25T10:25:55.392Z,45.90
2023-01-25T10:26:06.012Z,45.81
2023-01-25T10:26:15.393Z,45.71
2023-01-25T10:26:26.116Z,45.51
2023-01-25T10:26:35.398Z,45.51
2023-01-25T10:26:45.342Z,45.51
2023-01-25T10:26:55.385Z,45.51
2023-01-25T10:27:05.326Z,46.11
2023-01-25T10:27:15.344Z,45.78
2023-01-25T10:27:25.354Z,45.59
2023-01-25T10:27:35.352Z,46.28
2023-01-25T10:27:45.330Z,45.98
2023-01-25T10:27:55.322Z,45.89
2023-01-25T10:28:05.307Z,45.89
2023-01-25T10:28:15.282Z,45.68
2023-01-25T10:28:26.628Z,45.59
2023-01-25T10:28:35.254Z,45.48
2023-01-25T10:28:45.276Z,45.48
2023-01-25T10:28:55.254Z,45.39
2023-01-25T10:29:05.230Z,45.48
2023-01-25T10:29:15.248Z,45.48
2023-01-25T10:29:25.223Z,45.48
2023-01-25T10:29:35.234Z,45.56
2023-01-25T10:29:45.225Z,45.36
2023-01-25T10:29:55.182Z,45.36
2023-01-25T10:30:05.179Z,45.36
2023-01-25T10:30:17.523Z,45.47
2023-01-25T10:30:25.257Z,45.36
2023-01-25T10:30:35.226Z,45.26
2023-01-25T10:30:45.253Z,45.47
2023-01-25T10:30:55.294Z,45.26
2023-01-25T10:31:05.250Z,45.26
2023-01-25T10:31:15.252Z,45.26
2023-01-25T10:31:25.242Z,45.17
2023-01-25T10:31:35.188Z,45.36
2023-01-25T10:31:46.063Z,45.36
2023-01-25T10:31:55.197Z,45.47
2023-01-25T10:32:05.085Z,45.47
2023-01-25T10:32:15.070Z,45.36
2023-01-25T10:32:25.667Z,45.47
2023-01-25T10:32:39.714Z,45.47
2023-01-25T10:32:55.938Z,45.54
2023-01-25T10:33:01.491Z,45.44
2023-01-25T10:33:08.745Z,45.64
2023-01-25T10:33:18.757Z,45.54
2023-01-25T10:33:28.745Z,45.54
2023-01-25T10:33:40.224Z,47.03
2023-01-25T10:33:48.726Z,48.03
2023-01-25T10:33:58.739Z,46.34
2023-01-25T10:34:08.713Z,45.64
2023-01-25T10:34:18.710Z,45.44
2023-01-25T10:34:28.721Z,45.54
2023-01-25T10:34:54.303Z,45.47
2023-01-25T10:35:00.215Z,45.47
2023-01-25T10:35:04.858Z,45.66
2023-01-25T10:35:22.752Z,45.47
2023-01-25T10:35:36.735Z,45.39
2023-01-25T10:35:47.010Z,45.39
2023-01-25T10:35:54.176Z,46.58
2023-01-25T10:36:02.417Z,46.48
2023-01-25T10:36:13.168Z,46.48
2023-01-25T10:36:22.430Z,46.38
2023-01-25T10:36:33.406Z,46.48
2023-01-25T10:36:42.399Z,46.38
2023-01-25T10:36:52.402Z,46.41
2023-01-25T10:37:02.375Z,46.50
2023-01-25T10:37:12.345Z,46.50
2023-01-25T10:37:22.354Z,47.60
2023-01-25T10:37:33.023Z,46.91
2023-01-25T10:37:42.346Z,46.91
2023-01-25T10:37:52.347Z,46.70
2023-01-25T10:38:02.305Z,46.70
2023-01-25T10:38:12.287Z,46.20
2023-01-25T10:38:23.167Z,46.50
2023-01-25T10:38:32.321Z,46.91
2023-01-25T10:38:42.325Z,47.10
2023-01-25T10:38:52.277Z,47.20
2023-01-25T10:39:03.559Z,47.13
2023-01-25T10:39:12.247Z,47.03
2023-01-25T10:39:22.267Z,47.22
2023-01-25T10:39:32.220Z,47.53
2023-01-25T10:39:42.228Z,47.63
2023-01-25T10:39:52.216Z,47.75
